Slavkov u Brna, Czech Republic
Current Conditions -  °F | °C
As of 5:00 PM on Thursday 30 Oct 2014 (Local Time) from LKTB Reporting Station
Broken Clouds Broken Clouds  
Wind Chill: 46°   Ceiling: 2700
Heat Index: 48°   Visibility: 6mi
Dew Point: 41°   Wind: 6mph
Humidity: 76%   Direction: 220°SW
Pressure: 30.27"   Gusts: NA
Location:  49.15°N, 16.86°E
Report Text: LKTB 301500Z 22005KT 9999 BKN027 09/05 Q1025 NOSIG
Loading
Personal Weather Stations






























Interactive Weather Map
Tropical Storm Tracking
New forecast layout! Learn more

10-Day Weather Forecast

Advertisements
Track Severe Weather on mobile